METAR Data
IDs: Format: Raw Decoded Include TAF

Data at: 1737 UTC 16 Oct 2021

LICF 161655Z 33002KT 9999 SCT035 20/10 Q1015 RMK BKN BKN080 QUK / QUL / VIS MAR 15 KM MON INVIS VAR RAPID VIS MIN 9999